Flinterborg — PHPH — position and weather

sailwx.info

Track history (hours):
 
Tides and Currents Weather Stations Pressure Air Temp Water Temp Dewpoint Dewpoint Depression Visibility Wind Speed Wind Dir Waves Ship Positions

Flinterborg

Last reported at 2018-Feb-22 07:25 UTC. Time now 2018-Feb-22 08:39 UTC.
Position N 53°17' W 002°54'.

Length 111 m; draft 3.4 m.

Type: Ship. MMSI: 245433000.

Date/timePositionNaut miles runAvg speedWind from/ knotsBaromVisibWave heightAir tempDewpointWater temp
2018-Feb-22 07:25N 53°17' W 002°54'0 0.0
2018-Feb-22 05:34N 53°18' W 002°54'0 0.0
2018-Feb-22 05:25N 53°18' W 002°54'1 1.7
2018-Feb-22 04:59N 53°17' W 002°53'1 1.5
2018-Feb-22 04:30N 53°17' W 002°54'3 5.4
2018-Feb-22 04:00N 53°19' W 002°57'0 0.8
2018-Feb-22 03:27N 53°20' W 002°57'2 3.1
2018-Feb-22 02:58N 53°21' W 002°58'1 0.5
2018-Feb-22 01:42N 53°22' W 002°58'0 0.3
2018-Feb-22 01:23N 53°22' W 002°58'1 3.6
2018-Feb-22 01:00N 53°23' W 002°60'2 3.2
2018-Feb-22 00:30N 53°24' W 003°01'0 0.0
2018-Feb-21 23:57N 53°24' W 003°01'0 0.3
2018-Feb-21 23:30N 53°24' W 003°01'0 0.5
2018-Feb-21 23:00N 53°24' W 003°02'0 0.0
2018-Feb-21 21:48N 53°24' W 003°02'0 0.0
2018-Feb-21 20:29N 53°24' W 003°02'0 0.0
2018-Feb-21 19:59N 53°24' W 003°02'0 0.0
2018-Feb-21 19:05N 53°24' W 003°02'0 0.0
2018-Feb-21 18:59N 53°24' W 003°02'0 0.0
2018-Feb-21 18:16N 53°24' W 003°02'0 0.0
2018-Feb-21 15:09N 53°24' W 003°02'0 0.0
2018-Feb-21 14:57N 53°24' W 003°02'0 0.0
2018-Feb-21 12:59N 53°24' W 003°02'0 0.0
2018-Feb-21 10:25N 53°24' W 003°02'0 0.0
2018-Feb-21 08:06N 53°24' W 003°02'0 0.0
2018-Feb-21 02:22N 53°24' W 003°02'0 0.0
2018-Feb-21 01:57N 53°24' W 003°02'0 0.0
2018-Feb-21 01:30N 53°24' W 003°02'0 0.0
2018-Feb-20 22:38N 53°24' W 003°02'0 0.0
2018-Feb-20 22:20N 53°24' W 003°02'0 0.0
2018-Feb-20 16:11N 53°24' W 003°02'0 0.0
2018-Feb-20 14:22N 53°24' W 003°02'0 0.0
2018-Feb-20 13:01N 53°24' W 003°02'0 0.0
2018-Feb-20 10:27N 53°24' W 003°02'0 0.0
2018-Feb-20 09:56N 53°24' W 003°02'0 0.0
2018-Feb-20 09:23N 53°24' W 003°02'0 0.0
2018-Feb-20 08:35N 53°24' W 003°02'0 0.0
2018-Feb-20 08:29N 53°24' W 003°02'0 0.0
2018-Feb-20 02:47N 53°24' W 003°02'0 0.0
2018-Feb-20 01:53N 53°24' W 003°02'0 0.0
2018-Feb-19 19:14N 53°24' W 003°02'0 0.0
2018-Feb-19 18:56N 53°24' W 003°02'0 0.0
2018-Feb-19 15:49N 53°24' W 003°02'0 0.0
2018-Feb-19 13:48N 53°24' W 003°02'0 0.0
2018-Feb-19 10:04N 53°24' W 003°02'0 0.0
2018-Feb-19 01:55N 53°24' W 003°02'0 0.0
2018-Feb-19 01:24N 53°24' W 003°02'0 0.0
2018-Feb-19 00:48N 53°24' W 003°02'0 0.0
2018-Feb-18 12:55N 53°24' W 003°02'0 0.0
2018-Feb-18 11:42N 53°24' W 003°02'0 0.0
2018-Feb-18 09:54N 53°24' W 003°02'0 0.0
2018-Feb-18 08:44N 53°24' W 003°02'0 0.0
2018-Feb-18 07:47N 53°24' W 003°02'0 0.0
2018-Feb-18 01:56N 53°24' W 003°02'0 0.1
2018-Feb-18 01:30N 53°24' W 003°02'0 0.7
2018-Feb-18 00:58N 53°24' W 003°01'0 0.0
2018-Feb-18 00:28N 53°24' W 003°01'0 0.4
2018-Feb-17 23:53N 53°24' W 003°01'0 0.1
2018-Feb-17 23:30N 53°24' W 003°01'0 0.0
2018-Feb-17 22:55N 53°24' W 003°01'3 6.1
2018-Feb-17 22:29N 53°27' W 003°02'610.4
2018-Feb-17 21:56N 53°31' W 003°08'4 9.4
2018-Feb-17 21:29N 53°31' W 003°15'4 8.1
2018-Feb-17 21:00N 53°31' W 003°21'3 5.3
2018-Feb-17 20:26N 53°31' W 003°26'3 5.8
2018-Feb-17 20:00N 53°31' W 003°31'3 5.8
2018-Feb-17 19:30N 53°31' W 003°35'3 5.5
2018-Feb-17 19:00N 53°31' W 003°40'3 5.2
2018-Feb-17 18:23N 53°31' W 003°45'3 5.3
2018-Feb-17 17:54N 53°31' W 003°50'3 5.9
2018-Feb-17 17:27N 53°31' W 003°54'  
Track history (hours):
 
Tides and Currents Weather Stations Pressure Air Temp Water Temp Dewpoint Dewpoint Depression Visibility Wind Speed Wind Dir Waves Ship Positions

Flinterborg

Last reported at 2018-Feb-22 07:25 UTC. Time now 2018-Feb-22 08:39 UTC.
Position N 53°17' W 002°54'.

Length 111 m; draft 3.4 m.

Type: Ship. MMSI: 245433000.

Date/timePositionNaut miles runAvg speedWind from/ knotsBaromVisibWave heightAir tempDewpointWater temp
2018-Feb-22 07:25N 53°17' W 002°54'0 0.0
2018-Feb-22 05:34N 53°18' W 002°54'0 0.0
2018-Feb-22 05:25N 53°18' W 002°54'1 1.7
2018-Feb-22 04:59N 53°17' W 002°53'1 1.5
2018-Feb-22 04:30N 53°17' W 002°54'3 5.4
2018-Feb-22 04:00N 53°19' W 002°57'0 0.8
2018-Feb-22 03:27N 53°20' W 002°57'2 3.1
2018-Feb-22 02:58N 53°21' W 002°58'1 0.5
2018-Feb-22 01:42N 53°22' W 002°58'0 0.3
2018-Feb-22 01:23N 53°22' W 002°58'1 3.6
2018-Feb-22 01:00N 53°23' W 002°60'2 3.2
2018-Feb-22 00:30N 53°24' W 003°01'0 0.0
2018-Feb-21 23:57N 53°24' W 003°01'0 0.3
2018-Feb-21 23:30N 53°24' W 003°01'0 0.5
2018-Feb-21 23:00N 53°24' W 003°02'0 0.0
2018-Feb-21 21:48N 53°24' W 003°02'0 0.0
2018-Feb-21 20:29N 53°24' W 003°02'0 0.0
2018-Feb-21 19:59N 53°24' W 003°02'0 0.0
2018-Feb-21 19:05N 53°24' W 003°02'0 0.0
2018-Feb-21 18:59N 53°24' W 003°02'0 0.0
2018-Feb-21 18:16N 53°24' W 003°02'0 0.0
2018-Feb-21 15:09N 53°24' W 003°02'0 0.0
2018-Feb-21 14:57N 53°24' W 003°02'0 0.0
2018-Feb-21 12:59N 53°24' W 003°02'0 0.0
2018-Feb-21 10:25N 53°24' W 003°02'0 0.0
2018-Feb-21 08:06N 53°24' W 003°02'0 0.0
2018-Feb-21 02:22N 53°24' W 003°02'0 0.0
2018-Feb-21 01:57N 53°24' W 003°02'0 0.0
2018-Feb-21 01:30N 53°24' W 003°02'0 0.0
2018-Feb-20 22:38N 53°24' W 003°02'0 0.0
2018-Feb-20 22:20N 53°24' W 003°02'0 0.0
2018-Feb-20 16:11N 53°24' W 003°02'0 0.0
2018-Feb-20 14:22N 53°24' W 003°02'0 0.0
2018-Feb-20 13:01N 53°24' W 003°02'0 0.0
2018-Feb-20 10:27N 53°24' W 003°02'0 0.0
2018-Feb-20 09:56N 53°24' W 003°02'0 0.0
2018-Feb-20 09:23N 53°24' W 003°02'0 0.0
2018-Feb-20 08:35N 53°24' W 003°02'0 0.0
2018-Feb-20 08:29N 53°24' W 003°02'0 0.0
2018-Feb-20 02:47N 53°24' W 003°02'0 0.0
2018-Feb-20 01:53N 53°24' W 003°02'0 0.0
2018-Feb-19 19:14N 53°24' W 003°02'0 0.0
2018-Feb-19 18:56N 53°24' W 003°02'0 0.0
2018-Feb-19 15:49N 53°24' W 003°02'0 0.0
2018-Feb-19 13:48N 53°24' W 003°02'0 0.0
2018-Feb-19 10:04N 53°24' W 003°02'0 0.0
2018-Feb-19 01:55N 53°24' W 003°02'0 0.0
2018-Feb-19 01:24N 53°24' W 003°02'0 0.0
2018-Feb-19 00:48N 53°24' W 003°02'0 0.0
2018-Feb-18 12:55N 53°24' W 003°02'0 0.0
2018-Feb-18 11:42N 53°24' W 003°02'0 0.0
2018-Feb-18 09:54N 53°24' W 003°02'0 0.0
2018-Feb-18 08:44N 53°24' W 003°02'0 0.0
2018-Feb-18 07:47N 53°24' W 003°02'0 0.0
2018-Feb-18 01:56N 53°24' W 003°02'0 0.1
2018-Feb-18 01:30N 53°24' W 003°02'0 0.7
2018-Feb-18 00:58N 53°24' W 003°01'0 0.0
2018-Feb-18 00:28N 53°24' W 003°01'0 0.4
2018-Feb-17 23:53N 53°24' W 003°01'0 0.1
2018-Feb-17 23:30N 53°24' W 003°01'0 0.0
2018-Feb-17 22:55N 53°24' W 003°01'3 6.1
2018-Feb-17 22:29N 53°27' W 003°02'610.4
2018-Feb-17 21:56N 53°31' W 003°08'4 9.4
2018-Feb-17 21:29N 53°31' W 003°15'4 8.1
2018-Feb-17 21:00N 53°31' W 003°21'3 5.3
2018-Feb-17 20:26N 53°31' W 003°26'3 5.8
2018-Feb-17 20:00N 53°31' W 003°31'3 5.8
2018-Feb-17 19:30N 53°31' W 003°35'3 5.5
2018-Feb-17 19:00N 53°31' W 003°40'3 5.2
2018-Feb-17 18:23N 53°31' W 003°45'3 5.3
2018-Feb-17 17:54N 53°31' W 003°50'3 5.9
2018-Feb-17 17:27N 53°31' W 003°54'  

Dump ship's entire track history